Time;durP1;ratioP1;P1;durP2;ratioP2;P2;SDS_P1;SDS_P2;PMS_P1;PMS_P2;Temp;Humidity;BMP_temperature;BMP_pressure;BME280_temperature;BME280_humidity;BME280_pressure;Samples;Min_cycle;Max_cycle;Signal;HPM_P1;HPM_P2
2023/04/22 01:27:34;;;;;;;31.90;15.50;;;;;;;9.87;59.24;98905.50;219642;192;666181;-65
2023/04/22 01:32:38;;;;;;;32.00;16.50;;;;;;;9.83;59.45;98910.73;223555;182;137593;-64
2023/04/22 01:37:41;;;;;;;29.80;15.90;;;;;;;9.80;59.51;98914.63;223346;186;143396;-65
2023/04/22 01:42:45;;;;;;;28.90;16.00;;;;;;;9.74;59.57;98918.88;223863;180;138901;-64
2023/04/22 01:47:50;;;;;;;28.40;15.50;;;;;;;9.69;59.90;98917.77;223743;180;136423;-63
2023/04/22 01:52:56;;;;;;;31.30;16.00;;;;;;;9.63;59.81;98919.54;223814;213;144118;-64
2023/04/22 01:57:59;;;;;;;26.60;15.30;;;;;;;9.57;59.98;98920.98;223732;182;139912;-66
2023/04/22 02:03:03;;;;;;;21.40;11.70;;;;;;;9.50;59.95;98911.47;223911;181;136549;-63
2023/04/22 02:08:06;;;;;;;28.80;14.30;;;;;;;9.58;59.23;98908.48;223871;181;143417;-64
2023/04/22 02:13:11;;;;;;;28.20;15.70;;;;;;;9.61;59.60;98915.37;223754;182;139935;-64
2023/04/22 02:18:16;;;;;;;31.10;14.80;;;;;;;9.57;59.70;98911.52;223558;181;137394;-65
2023/04/22 02:23:20;;;;;;;29.10;14.00;;;;;;;9.50;59.86;98909.34;223731;184;145110;-64
2023/04/22 02:28:23;;;;;;;33.40;13.50;;;;;;;9.43;60.19;98904.98;223509;214;138964;-65
2023/04/22 02:33:26;;;;;;;29.80;13.80;;;;;;;9.37;60.43;98908.34;223889;214;136747;-65
2023/04/22 02:38:30;;;;;;;28.40;13.80;;;;;;;9.36;60.47;98907.86;223646;181;145756;-66
2023/04/22 02:43:33;;;;;;;26.30;13.40;;;;;;;9.32;60.55;98906.66;223659;181;138810;-67
2023/04/22 02:48:36;;;;;;;25.50;14.40;;;;;;;9.28;60.67;98906.58;223731;181;136713;-65
2023/04/22 02:53:39;;;;;;;22.80;13.50;;;;;;;9.21;60.55;98903.40;223510;181;145680;-66
2023/04/22 02:58:43;;;;;;;19.20;11.60;;;;;;;9.24;59.28;98902.88;223643;206;142751;-65
2023/04/22 03:03:46;;;;;;;30.00;13.80;;;;;;;9.38;59.14;98912.54;223578;214;138827;-65
2023/04/22 03:08:55;;;;;;;29.70;14.00;;;;;;;9.33;59.80;98911.05;223453;215;145276;-64
2023/04/22 03:13:58;;;;;;;26.50;14.00;;;;;;;9.26;59.87;98908.95;223505;181;138696;-65
2023/04/22 03:19:02;;;;;;;23.50;12.60;;;;;;;9.18;59.95;98907.48;223557;214;136970;-65
2023/04/22 03:24:05;;;;;;;25.00;13.90;;;;;;;9.11;60.11;98917.45;223525;183;146007;-65
2023/04/22 03:29:08;;;;;;;22.50;12.50;;;;;;;9.06;60.23;98916.71;223494;182;139276;-65
2023/04/22 03:34:11;;;;;;;22.80;14.20;;;;;;;8.98;60.25;98919.08;223625;214;136747;-65
2023/04/22 03:39:16;;;;;;;26.20;12.50;;;;;;;8.88;60.61;98917.16;223512;185;145526;-65
2023/04/22 03:44:19;;;;;;;25.40;12.50;;;;;;;8.85;60.53;98921.27;223452;183;140567;-64
2023/04/22 03:49:26;;;;;;;26.00;12.40;;;;;;;8.80;60.71;98921.39;223476;181;136496;-65
2023/04/22 03:54:35;;;;;;;21.30;12.30;;;;;;;8.78;61.05;98925.55;222777;182;145843;-67
2023/04/22 03:59:40;;;;;;;25.80;12.90;;;;;;;8.79;60.96;98926.04;223520;180;138931;-65
2023/04/22 04:04:45;;;;;;;18.20;11.70;;;;;;;8.79;61.11;98927.82;223670;182;136602;-64
2023/04/22 04:09:49;;;;;;;17.70;10.30;;;;;;;8.78;61.12;98934.94;223580;181;145503;-65
2023/04/22 04:14:53;;;;;;;18.40;10.70;;;;;;;8.88;59.92;98932.75;223471;182;140432;-66
2023/04/22 04:19:56;;;;;;;30.40;12.30;;;;;;;9.02;60.11;98937.10;223517;191;137116;-64
2023/04/22 04:25:01;;;;;;;22.10;11.20;;;;;;;9.07;60.92;98940.88;223579;181;147341;-65
2023/04/22 04:30:12;;;;;;;23.30;12.20;;;;;;;9.10;60.78;98940.52;223564;181;137588;-63
2023/04/22 04:35:22;;;;;;;21.50;12.00;;;;;;;9.14;60.88;98943.45;223527;191;136862;-64
2023/04/22 04:40:29;;;;;;;19.20;12.10;;;;;;;9.25;58.79;98944.95;223559;203;146195;-66
2023/04/22 04:45:45;;;;;;;29.90;12.10;;;;;;;9.42;59.60;98944.48;223588;182;138830;-67
2023/04/22 04:50:53;;;;;;;19.60;11.90;;;;;;;9.51;60.01;98946.27;223671;182;136803;-65
2023/04/22 04:55:57;;;;;;;20.90;10.80;;;;;;;9.61;58.84;98948.66;223535;181;145445;-66
2023/04/22 05:01:01;;;;;;;17.20;10.20;;;;;;;9.77;56.58;98945.41;223402;181;138363;-66
2023/04/22 05:06:05;;;;;;;24.10;11.70;;;;;;;9.95;56.11;98945.75;223556;181;137128;-66
2023/04/22 05:11:09;;;;;;;18.40;10.50;;;;;;;10.09;55.47;98939.92;223564;181;146063;-64
2023/04/22 05:16:12;;;;;;;21.00;10.70;;;;;;;10.21;54.90;98942.73;223582;212;138357;-64
2023/04/22 05:21:16;;;;;;;17.90;10.80;;;;;;;10.36;54.82;98948.77;223571;183;136938;-64
2023/04/22 05:26:20;;;;;;;19.00;10.20;;;;;;;10.52;54.38;98947.03;223498;181;145722;-64
2023/04/22 05:31:24;;;;;;;17.70;10.80;;;;;;;10.63;53.31;98950.06;223481;182;138494;-64
2023/04/22 05:36:27;;;;;;;19.40;10.90;;;;;;;10.77;52.85;98951.15;223545;184;137662;-66
2023/04/22 05:41:35;;;;;;;19.60;11.30;;;;;;;10.88;52.67;98948.98;223501;181;145628;-65
2023/04/22 05:46:39;;;;;;;20.30;11.60;;;;;;;11.04;52.22;98949.00;221478;183;138913;-65
2023/04/22 06:25:28;;;;;;;25.80;13.30;;;;;;;12.26;50.64;98944.16;222023;192;666892;-65
2023/04/22 06:30:31;;;;;;;25.30;12.50;;;;;;;12.40;50.75;98946.34;223578;183;137285;-65
2023/04/22 06:35:35;;;;;;;23.90;12.70;;;;;;;12.60;49.87;98947.94;221005;183;144168;-64
2023/04/22 06:40:39;;;;;;;24.80;15.00;;;;;;;12.80;49.69;98945.09;223563;184;138442;-66
2023/04/22 06:46:07;;;;;;;31.30;14.20;;;;;;;13.03;49.95;98944.79;223508;184;137276;-66
2023/04/22 06:51:28;;;;;;;24.50;13.20;;;;;;;13.26;49.23;98947.75;223417;183;143968;-65
2023/04/22 06:56:34;;;;;;;22.80;13.10;;;;;;;13.44;48.38;98941.64;223494;183;139603;-65
2023/04/22 07:01:38;;;;;;;20.80;12.30;;;;;;;13.64;47.87;98941.13;223468;183;136925;-66
2023/04/22 07:06:42;;;;;;;21.70;13.40;;;;;;;13.82;46.72;98943.34;223535;183;144847;-67
2023/04/22 07:11:45;;;;;;;26.10;12.60;;;;;;;13.97;46.44;98944.14;223470;182;139108;-66
2023/04/22 07:16:53;;;;;;;21.30;12.60;;;;;;;14.10;46.14;98940.13;222850;182;138104;-65
2023/04/22 07:21:57;;;;;;;20.60;12.70;;;;;;;14.27;45.43;98940.55;222029;181;145746;-66
2023/04/22 07:27:02;;;;;;;22.00;12.50;;;;;;;14.45;45.44;98937.16;221255;181;138617;-66
2023/04/22 07:32:06;;;;;;;21.50;12.90;;;;;;;14.61;45.31;98941.09;222710;183;137118;-66
2023/04/22 07:37:09;;;;;;;18.10;12.40;;;;;;;14.74;44.09;98939.47;223346;181;145671;-65
2023/04/22 07:42:12;;;;;;;21.30;11.70;;;;;;;14.84;43.45;98934.38;223644;181;138492;-65
2023/04/22 07:47:16;;;;;;;20.50;11.70;;;;;;;15.03;43.10;98936.23;221413;183;137611;-65
2023/04/22 07:52:19;;;;;;;19.70;11.80;;;;;;;15.25;42.81;98936.40;222807;181;146482;-68
2023/04/22 07:57:22;;;;;;;20.40;11.20;;;;;;;15.37;42.23;98935.98;223217;181;139803;-65
2023/04/22 08:02:26;;;;;;;15.30;11.00;;;;;;;15.51;42.44;98933.13;223541;181;136715;-66
2023/04/22 08:07:29;;;;;;;16.90;11.40;;;;;;;15.70;42.72;98934.07;222777;182;144728;-66
2023/04/22 08:12:36;;;;;;;19.80;11.50;;;;;;;15.92;41.96;98932.58;222395;183;138397;-66
2023/04/22 08:17:39;;;;;;;20.70;11.60;;;;;;;16.13;41.91;98926.66;223223;181;138782;-62
2023/04/22 08:22:44;;;;;;;19.10;10.30;;;;;;;16.36;41.26;98932.73;223680;182;145328;-66
2023/04/22 08:27:49;;;;;;;19.50;9.50;;;;;;;16.53;41.28;98929.98;223761;181;139158;-64
2023/04/22 08:32:53;;;;;;;16.30;8.30;;;;;;;16.70;40.33;98925.55;223866;181;137831;-64
2023/04/22 08:37:57;;;;;;;15.70;7.60;;;;;;;16.89;39.69;98926.64;223784;181;145787;-63
2023/04/22 08:43:01;;;;;;;9.40;5.20;;;;;;;17.02;37.84;98927.58;223690;181;141956;-64
2023/04/22 08:48:04;;;;;;;13.50;5.70;;;;;;;17.24;36.66;98927.18;223862;203;136181;-64
2023/04/22 08:53:07;;;;;;;13.80;5.40;;;;;;;17.41;36.16;98919.74;223787;186;145903;-65
2023/04/22 08:58:11;;;;;;;13.50;7.20;;;;;;;17.59;35.54;98919.49;223664;181;138377;-64
2023/04/22 09:03:15;;;;;;;18.30;9.30;;;;;;;17.75;35.27;98918.39;223659;184;137309;-65
2023/04/22 09:08:19;;;;;;;19.30;9.40;;;;;;;17.84;36.00;98918.93;223697;181;145778;-67
2023/04/22 09:13:23;;;;;;;13.80;7.70;;;;;;;17.94;36.86;98910.85;223616;185;138693;-67
2023/04/22 09:18:26;;;;;;;7.60;4.30;;;;;;;18.07;36.56;98909.80;223765;181;136798;-65
2023/04/22 09:23:29;;;;;;;7.60;5.20;;;;;;;18.25;39.55;98911.84;223685;181;145940;-64
2023/04/22 09:28:35;;;;;;;7.20;4.90;;;;;;;18.68;42.90;98907.65;223650;214;138834;-65
2023/04/22 09:33:38;;;;;;;;;;;;;;;19.07;41.91;98900.61;223697;181;137559;-65
2023/04/22 09:38:51;;;;;;;6.60;4.30;;;;;;;19.34;40.00;98896.98;223815;181;145315;-65
2023/04/22 09:43:56;;;;;;;5.00;3.90;;;;;;;19.57;38.27;98886.94;223248;214;138248;-65
2023/04/22 09:49:00;;;;;;;5.70;4.00;;;;;;;19.73;37.08;98885.16;223561;181;136771;-65
2023/04/22 09:54:09;;;;;;;6.90;3.60;;;;;;;19.84;36.14;98878.62;222398;181;145446;-65
2023/04/22 09:59:34;;;;;;;6.60;3.60;;;;;;;19.94;34.57;98876.38;222470;181;139317;-64
2023/04/22 10:04:41;;;;;;;5.00;3.40;;;;;;;20.07;33.05;98876.41;222289;185;137113;-62
2023/04/22 10:09:45;;;;;;;3.90;3.00;;;;;;;20.22;32.22;98874.89;222410;182;145291;-63
2023/04/22 10:14:48;;;;;;;3.90;3.20;;;;;;;20.32;31.18;98871.61;223596;181;138965;-64
2023/04/22 10:19:55;;;;;;;9.10;3.40;;;;;;;20.40;30.45;98862.70;223553;181;136535;-65
2023/04/22 10:24:58;;;;;;;5.30;3.60;;;;;;;20.51;30.50;98862.92;223746;181;145341;-63
2023/04/22 10:30:02;;;;;;;6.40;4.10;;;;;;;20.64;30.47;98854.23;223613;215;140142;-65
2023/04/22 10:35:11;;;;;;;8.60;4.00;;;;;;;20.76;30.37;98852.55;223797;215;136567;-63
2023/04/22 10:40:16;;;;;;;7.10;4.20;;;;;;;20.89;30.17;98848.30;223231;181;145497;-64
2023/04/22 10:45:23;;;;;;;9.20;4.00;;;;;;;21.05;30.09;98844.40;223477;182;137750;-64
2023/04/22 10:50:30;;;;;;;4.60;3.70;;;;;;;21.14;29.67;98844.31;223687;181;137539;-64
2023/04/22 10:55:55;;;;;;;6.00;4.10;;;;;;;21.20;29.24;98844.35;222263;181;145328;-63
2023/04/22 11:01:01;;;;;;;;;;;;;;;21.25;28.82;98837.19;223349;181;138967;-64
2023/04/22 11:06:15;;;;;;;4.30;3.30;;;;;;;21.38;28.85;98836.00;222746;207;131067;-64
2023/04/22 11:11:18;;;;;;;5.00;3.80;;;;;;;21.53;28.88;98826.20;223732;215;145307;-65
2023/04/22 11:16:22;;;;;;;4.90;3.50;;;;;;;21.71;28.82;98822.51;223612;185;138462;-63
2023/04/22 11:21:26;;;;;;;6.30;3.90;;;;;;;21.85;28.67;98820.96;223652;181;137410;-64
2023/04/22 11:26:34;;;;;;;6.60;4.20;;;;;;;22.03;29.12;98814.72;223772;181;145284;-66
2023/04/22 11:31:37;;;;;;;6.50;4.50;;;;;;;22.40;29.35;98816.04;223683;181;138386;-65
2023/04/22 11:36:46;;;;;;;8.70;4.50;;;;;;;22.76;28.51;98809.50;223807;200;136728;-65
2023/04/22 11:41:49;;;;;;;6.70;4.10;;;;;;;22.96;26.81;98803.03;223788;181;145741;-64
2023/04/22 11:46:55;;;;;;;8.40;4.30;;;;;;;23.09;27.19;98796.73;223739;182;138944;-63
2023/04/22 11:51:59;;;;;;;7.70;5.10;;;;;;;23.24;27.36;98795.33;223729;181;140140;-64
2023/04/22 11:57:07;;;;;;;10.60;4.80;;;;;;;23.48;27.79;98785.64;223642;181;147030;-63
2023/04/22 12:02:10;;;;;;;6.70;4.70;;;;;;;23.69;28.01;98784.70;223768;181;138051;-63
2023/04/22 12:07:14;;;;;;;7.20;4.40;;;;;;;23.82;27.61;98783.26;223629;181;139353;-63
2023/04/22 12:12:17;;;;;;;9.30;4.50;;;;;;;23.97;27.54;98776.11;223782;181;145911;-66
2023/04/22 12:17:24;;;;;;;6.90;4.20;;;;;;;24.14;26.88;98775.75;223716;214;138343;-66
2023/04/22 12:22:28;;;;;;;7.60;4.20;;;;;;;24.30;26.59;98773.21;223687;185;139107;-65
2023/04/22 12:27:31;;;;;;;7.30;3.90;;;;;;;24.56;26.54;98769.79;223683;181;145362;-65
2023/04/22 12:32:35;;;;;;;6.00;3.60;;;;;;;24.77;26.40;98767.67;223607;181;139410;-66
2023/04/22 12:37:38;;;;;;;12.50;3.90;;;;;;;25.00;25.99;98766.71;223656;214;137202;-66
2023/04/22 12:42:41;;;;;;;8.90;3.80;;;;;;;25.22;25.92;98759.06;223731;181;145436;-67
2023/04/22 12:47:45;;;;;;;7.70;3.70;;;;;;;25.48;25.83;98750.46;223635;181;138943;-64
2023/04/22 12:52:49;;;;;;;5.30;3.50;;;;;;;25.68;25.35;98748.55;223733;214;137141;-65
2023/04/22 12:57:52;;;;;;;5.70;3.50;;;;;;;25.75;24.96;98743.32;223619;184;145323;-64
2023/04/22 13:02:55;;;;;;;6.40;3.40;;;;;;;25.85;24.99;98739.86;223539;181;140740;-65
2023/04/22 13:07:59;;;;;;;9.60;3.40;;;;;;;26.03;24.76;98735.16;223821;181;137732;-64
2023/04/22 13:13:16;;;;;;;5.20;3.20;;;;;;;26.19;24.54;98725.93;223699;181;145342;-65
2023/04/22 13:18:22;;;;;;;4.10;3.30;;;;;;;26.30;24.18;98724.80;223717;181;139448;-67
2023/04/22 13:23:26;;;;;;;5.00;3.60;;;;;;;26.35;24.27;98721.30;223690;203;137463;-64
2023/04/22 13:28:29;;;;;;;9.90;3.00;;;;;;;26.32;23.88;98720.77;223682;180;145526;-63
2023/04/22 13:33:32;;;;;;;7.30;3.10;;;;;;;26.30;23.37;98716.61;223634;181;138182;-64
2023/04/22 13:38:35;;;;;;;6.20;3.30;;;;;;;26.37;23.24;98712.83;223709;181;137594;-64
2023/04/22 13:43:38;;;;;;;5.00;3.00;;;;;;;26.45;22.98;98709.23;223629;182;144955;-66
2023/04/22 13:48:42;;;;;;;6.30;3.10;;;;;;;26.46;22.82;98711.27;223672;182;139389;-64
2023/04/22 13:53:45;;;;;;;5.20;3.20;;;;;;;26.54;23.05;98707.60;223645;181;136751;-66
2023/04/22 13:58:48;;;;;;;4.40;2.90;;;;;;;26.58;22.82;98707.98;223669;214;146484;-67
2023/04/22 14:03:51;;;;;;;5.90;3.40;;;;;;;26.74;22.62;98705.30;223628;181;139966;-67
2023/04/22 14:09:00;;;;;;;4.80;2.60;;;;;;;27.04;22.11;98702.70;223649;181;136909;-68
2023/04/22 14:14:03;;;;;;;5.50;2.80;;;;;;;27.32;22.05;98695.04;223585;181;145370;-64
2023/04/22 14:19:09;;;;;;;6.10;3.30;;;;;;;27.54;21.56;98693.73;223591;182;152878;-65
2023/04/22 14:24:18;;;;;;;13.80;3.90;;;;;;;27.56;20.99;98689.48;223501;181;137360;-63
2023/04/22 14:29:21;;;;;;;7.00;3.10;;;;;;;27.57;20.99;98693.94;223695;211;146677;-63
2023/04/22 14:34:25;;;;;;;3.70;2.80;;;;;;;27.26;20.63;98686.02;223605;181;139051;-63
2023/04/22 14:39:35;;;;;;;7.20;2.80;;;;;;;26.46;22.48;98687.36;223671;181;136749;-68
2023/04/22 14:44:38;;;;;;;6.80;3.40;;;;;;;25.56;22.86;98689.60;223645;181;145442;-65
2023/04/22 14:49:41;;;;;;;4.30;3.10;;;;;;;24.85;23.48;98683.90;223731;181;138323;-65
2023/04/22 14:54:46;;;;;;;3.60;3.10;;;;;;;24.25;23.80;98683.25;223584;181;137268;-62
2023/04/22 14:59:51;;;;;;;6.70;3.00;;;;;;;23.76;24.02;98679.73;223777;181;147433;-64
2023/04/22 15:04:54;;;;;;;5.30;3.20;;;;;;;23.35;24.49;98679.64;223721;207;139366;-65
2023/04/22 15:09:57;;;;;;;3.90;2.80;;;;;;;22.99;24.54;98674.11;223709;181;137573;-65
2023/04/22 15:15:00;;;;;;;4.30;3.20;;;;;;;22.70;24.91;98680.71;223485;181;149679;-66
2023/04/22 15:20:08;;;;;;;6.40;3.40;;;;;;;22.43;25.34;98679.48;223731;181;138399;-64
2023/04/22 15:25:17;;;;;;;6.10;3.00;;;;;;;22.23;25.56;98678.44;223553;181;137598;-65
2023/04/22 15:30:22;;;;;;;6.90;3.60;;;;;;;22.07;25.86;98677.12;223599;181;147340;-64
2023/04/22 15:35:25;;;;;;;8.60;3.30;;;;;;;22.01;26.27;98668.89;223584;182;139138;-64
2023/04/22 15:40:28;;;;;;;5.10;3.10;;;;;;;22.01;26.55;98672.40;223677;181;137850;-63
2023/04/22 15:45:35;;;;;;;4.70;3.20;;;;;;;22.06;26.69;98675.17;223628;181;147067;-63
2023/04/22 15:50:39;;;;;;;4.20;3.10;;;;;;;22.08;26.86;98671.80;223476;182;139846;-64
2023/04/22 15:55:42;;;;;;;4.90;3.20;;;;;;;22.38;26.64;98672.52;223593;214;137525;-63
2023/04/22 16:00:47;;;;;;;6.30;3.80;;;;;;;23.07;26.07;98665.41;223030;182;147881;-64
2023/04/22 16:05:50;;;;;;;6.90;3.50;;;;;;;23.82;25.40;98661.00;222751;181;139970;-64
2023/04/22 16:10:53;;;;;;;12.50;3.60;;;;;;;24.04;25.17;98664.65;223703;181;137577;-63
2023/04/22 16:15:57;;;;;;;11.20;3.30;;;;;;;23.63;26.68;98662.59;223656;181;146603;-63
2023/04/22 16:21:00;;;;;;;5.10;2.60;;;;;;;23.27;26.78;98663.52;223396;191;138415;-63
2023/04/22 16:26:04;;;;;;;5.80;2.90;;;;;;;23.17;26.75;98661.90;223617;181;136886;-64
2023/04/22 16:31:09;;;;;;;5.90;2.90;;;;;;;23.01;26.64;98661.44;223728;192;146947;-64
2023/04/22 16:36:12;;;;;;;6.80;2.90;;;;;;;22.63;26.72;98661.39;223575;181;140876;-65
2023/04/22 16:41:15;;;;;;;8.90;2.90;;;;;;;22.34;26.92;98661.73;223773;182;137175;-64
2023/04/22 16:46:18;;;;;;;6.00;3.00;;;;;;;22.04;27.16;98655.52;223613;182;147259;-63
2023/04/22 16:51:22;;;;;;;7.60;2.90;;;;;;;21.77;27.49;98657.55;223702;180;139059;-64
2023/04/22 16:56:25;;;;;;;8.60;3.30;;;;;;;21.52;27.78;98659.81;223648;182;137094;-63
2023/04/22 17:01:29;;;;;;;9.90;3.30;;;;;;;21.30;28.59;98658.33;223645;181;147511;-62
2023/04/22 17:06:32;;;;;;;5.90;2.90;;;;;;;21.06;28.79;98659.88;223594;181;138320;-62
2023/04/22 17:11:35;;;;;;;5.40;3.30;;;;;;;20.82;29.18;98656.80;223732;214;137395;-62
2023/04/22 17:16:38;;;;;;;4.40;2.80;;;;;;;20.63;30.04;98659.33;223710;181;146801;-65
2023/04/22 17:21:41;;;;;;;7.30;3.20;;;;;;;20.48;30.95;98659.62;223630;183;138172;-66
2023/04/22 17:26:45;;;;;;;9.50;3.20;;;;;;;20.34;31.18;98662.08;223623;181;137036;-65
2023/04/22 17:31:49;;;;;;;11.70;2.90;;;;;;;20.24;31.23;98666.25;223607;182;148569;-66
2023/04/22 17:36:53;;;;;;;8.80;3.20;;;;;;;20.07;31.29;98663.84;223579;181;138416;-65
2023/04/22 17:42:02;;;;;;;7.60;3.30;;;;;;;19.87;30.63;98667.16;223788;181;136776;-66
2023/04/22 17:47:06;;;;;;;8.90;3.60;;;;;;;19.67;30.77;98672.14;223824;181;148003;-66
2023/04/22 17:52:10;;;;;;;7.80;3.30;;;;;;;19.51;30.90;98678.58;223465;214;140276;-66
2023/04/22 17:57:13;;;;;;;6.90;3.60;;;;;;;19.30;31.58;98683.36;223574;179;138645;-66
2023/04/22 18:02:16;;;;;;;7.70;3.90;;;;;;;19.11;31.87;98684.24;223558;182;147340;-67
2023/04/22 18:07:20;;;;;;;9.00;4.70;;;;;;;18.95;32.19;98690.20;223656;183;141828;-67
2023/04/22 18:12:25;;;;;;;10.60;4.90;;;;;;;18.80;32.69;98694.38;223570;181;141214;-68
2023/04/22 18:17:31;;;;;;;9.50;5.40;;;;;;;18.64;32.87;98700.11;223695;215;147718;-66
2023/04/22 18:22:35;;;;;;;9.10;6.30;;;;;;;18.48;33.56;98707.31;223499;180;139218;-66
2023/04/22 18:27:38;;;;;;;10.60;5.60;;;;;;;18.28;34.95;98704.65;223495;181;136948;-67
2023/04/22 18:32:45;;;;;;;16.40;6.00;;;;;;;18.12;34.76;98710.71;223462;182;147869;-66
2023/04/22 18:37:48;;;;;;;17.50;7.60;;;;;;;17.96;35.40;98714.40;223450;181;140064;-64
2023/04/22 18:42:52;;;;;;;16.70;7.90;;;;;;;17.79;35.70;98715.55;223656;182;137503;-63
2023/04/22 18:47:55;;;;;;;17.40;7.80;;;;;;;17.64;35.90;98715.67;223656;181;149207;-63
2023/04/22 18:52:58;;;;;;;19.70;9.10;;;;;;;17.52;36.29;98715.08;223644;186;138793;-67
2023/04/22 18:58:02;;;;;;;14.40;8.50;;;;;;;17.40;36.48;98714.61;223594;189;137556;-65
2023/04/22 19:03:05;;;;;;;16.50;8.90;;;;;;;17.28;36.72;98712.71;223782;215;146761;-64
2023/04/22 19:08:09;;;;;;;13.80;8.80;;;;;;;17.18;37.27;98712.27;223540;181;138349;-64
2023/04/22 19:13:12;;;;;;;19.00;9.60;;;;;;;17.10;36.87;98712.08;223749;181;138587;-64
2023/04/22 19:18:31;;;;;;;14.00;9.40;;;;;;;16.98;37.89;98710.89;223599;182;147102;-66
2023/04/22 19:23:35;;;;;;;19.80;10.40;;;;;;;16.86;37.78;98710.62;223624;182;139275;-65
2023/04/22 19:28:38;;;;;;;22.70;10.30;;;;;;;16.74;37.99;98705.59;223667;203;137661;-64
2023/04/22 19:33:42;;;;;;;17.90;10.60;;;;;;;16.64;38.58;98703.60;223557;183;147545;-63
2023/04/22 19:38:45;;;;;;;19.30;10.40;;;;;;;16.51;39.10;98707.29;223635;181;138835;-64
2023/04/22 19:43:50;;;;;;;21.40;10.90;;;;;;;16.41;38.98;98704.50;223644;181;138051;-64
2023/04/22 19:48:53;;;;;;;20.70;11.20;;;;;;;16.30;39.07;98705.31;223688;181;147869;-64
2023/04/22 19:53:57;;;;;;;22.00;11.70;;;;;;;16.21;38.82;98704.34;223652;180;138589;-63
2023/04/22 19:59:01;;;;;;;21.10;11.80;;;;;;;16.14;38.72;98707.70;223831;203;139392;-67
2023/04/22 20:04:05;;;;;;;18.10;10.30;;;;;;;16.04;39.09;98701.94;223762;181;147779;-63
2023/04/22 20:09:09;;;;;;;15.70;9.80;;;;;;;15.95;39.86;98704.54;223630;184;138301;-64
2023/04/22 20:14:12;;;;;;;21.20;11.20;;;;;;;15.85;40.25;98705.98;223540;182;137124;-65
2023/04/22 20:19:16;;;;;;;19.60;10.80;;;;;;;15.73;41.51;98708.32;223745;181;146953;-64
2023/04/22 20:24:20;;;;;;;21.80;10.80;;;;;;;15.61;41.87;98710.75;223771;181;138886;-65
2023/04/22 20:29:24;;;;;;;24.40;12.30;;;;;;;15.54;42.28;98705.48;223774;184;137345;-64
2023/04/22 20:34:30;;;;;;;19.00;11.70;;;;;;;15.41;41.65;98702.84;223657;181;148633;-64
2023/04/22 20:39:35;;;;;;;21.40;11.50;;;;;;;15.33;42.00;98707.63;221570;181;139152;-65
2023/04/22 20:44:39;;;;;;;23.90;11.70;;;;;;;15.25;42.63;98706.03;223518;181;137167;-65
2023/04/22 20:49:43;;;;;;;20.10;11.70;;;;;;;15.12;42.69;98704.77;223712;181;147152;-62
2023/04/22 20:54:53;;;;;;;22.70;12.50;;;;;;;15.01;42.89;98706.33;223755;181;139436;-64
2023/04/22 20:59:56;;;;;;;24.30;12.70;;;;;;;14.92;43.24;98704.06;223699;181;137681;-65
2023/04/22 21:05:00;;;;;;;21.60;12.80;;;;;;;14.82;43.90;98702.92;223743;214;148001;-63
2023/04/22 21:10:05;;;;;;;26.00;12.80;;;;;;;14.73;43.97;98699.92;223648;182;138685;-66
2023/04/22 21:15:08;;;;;;;24.10;13.50;;;;;;;14.65;43.89;98696.34;223570;181;138595;-63
2023/04/22 21:20:12;;;;;;;23.50;14.00;;;;;;;14.57;44.66;98693.61;223575;181;147153;-64
2023/04/22 21:25:20;;;;;;;27.50;13.30;;;;;;;14.51;45.17;98693.40;223816;181;139124;-65
2023/04/22 21:30:23;;;;;;;31.90;15.00;;;;;;;14.38;46.13;98695.52;223527;181;137194;-63
2023/04/22 21:35:26;;;;;;;31.60;16.00;;;;;;;14.25;46.48;98694.45;223628;214;146903;-65
2023/04/22 21:40:30;;;;;;;36.60;17.10;;;;;;;14.15;47.10;98699.73;223627;181;139807;-66
2023/04/22 21:45:34;;;;;;;35.20;21.00;;;;;;;14.04;47.28;98697.45;223587;181;137957;-64
2023/04/22 21:50:37;;;;;;;52.30;27.40;;;;;;;13.97;47.92;98697.34;223587;181;149544;-64
2023/04/22 21:55:40;;;;;;;48.00;25.30;;;;;;;13.89;48.04;98697.23;223487;181;138816;-64
2023/04/22 22:00:44;;;;;;;45.60;24.50;;;;;;;13.81;48.37;98698.41;223714;181;137846;-64
2023/04/22 22:05:48;;;;;;;44.80;27.80;;;;;;;13.71;48.93;98699.39;223718;181;147688;-65
2023/04/22 22:10:51;;;;;;;50.00;29.60;;;;;;;13.63;48.66;98697.85;223577;185;138119;-65
2023/04/22 22:15:56;;;;;;;63.80;32.00;;;;;;;13.56;49.05;98699.58;223662;182;138487;-66
2023/04/22 22:20:59;;;;;;;49.20;30.60;;;;;;;13.46;49.29;98695.86;223606;181;147103;-66
2023/04/22 22:26:03;;;;;;;50.60;29.30;;;;;;;13.39;48.99;98698.35;223573;181;138637;-65
2023/04/22 22:31:06;;;;;;;49.40;28.90;;;;;;;13.34;48.92;98702.54;223777;181;140364;-64
2023/04/22 22:36:10;;;;;;;53.80;30.70;;;;;;;13.29;49.79;98701.89;223803;181;147023;-63
2023/04/22 22:41:13;;;;;;;51.80;29.80;;;;;;;13.21;50.06;98703.89;223710;215;138364;-65
2023/04/22 22:46:24;;;;;;;52.60;28.60;;;;;;;13.15;49.64;98702.21;223761;181;138151;-64
2023/04/22 22:51:28;;;;;;;51.20;29.40;;;;;;;13.09;50.03;98704.27;223600;181;148224;-64
2023/04/22 22:56:31;;;;;;;58.50;34.00;;;;;;;13.01;50.38;98704.16;223468;181;140011;-65
2023/04/22 23:01:35;;;;;;;64.60;35.10;;;;;;;12.95;50.60;98701.61;223654;181;137134;-65
2023/04/22 23:06:38;;;;;;;59.40;34.90;;;;;;;12.88;50.68;98705.02;223559;181;147160;-64
2023/04/22 23:11:41;;;;;;;55.60;33.00;;;;;;;12.78;50.77;98699.89;223740;215;139081;-64
2023/04/22 23:16:45;;;;;;;58.60;32.80;;;;;;;12.70;50.68;98704.58;223720;181;140405;-64
2023/04/22 23:21:48;;;;;;;54.30;31.70;;;;;;;12.63;51.33;98702.44;223602;181;146879;-63
2023/04/22 23:26:52;;;;;;;50.90;30.30;;;;;;;12.55;51.37;98700.73;223616;181;138407;-63
2023/04/22 23:31:55;;;;;;;45.20;27.30;;;;;;;12.46;51.45;98702.45;223655;181;137724;-64
2023/04/22 23:37:04;;;;;;;47.30;27.60;;;;;;;12.38;51.75;98705.40;223579;181;147016;-64
2023/04/22 23:42:07;;;;;;;42.00;26.20;;;;;;;12.29;51.83;98698.04;223662;181;138519;-65
2023/04/22 23:47:11;;;;;;;43.90;25.60;;;;;;;12.23;51.87;98696.73;223842;182;137208;-63
2023/04/22 23:52:14;;;;;;;39.90;23.40;;;;;;;12.17;52.26;98692.95;223601;181;147381;-65
2023/04/22 23:57:18;;;;;;;38.70;22.40;;;;;;;12.08;52.42;98696.23;223615;182;138425;-64
